createdAt,value
2023-05-16T00:00:26.403Z,9.68
2023-05-16T00:02:53.162Z,6.47
2023-05-16T00:05:19.723Z,7.65
2023-05-16T00:07:47.575Z,8.27
2023-05-16T00:10:14.239Z,10.07
2023-05-16T00:12:40.714Z,6.78
2023-05-16T00:15:08.743Z,7.60
2023-05-16T00:17:35.676Z,7.72
2023-05-16T00:20:11.123Z,5.88
2023-05-16T00:22:37.971Z,7.00
2023-05-16T00:25:04.501Z,9.85
2023-05-16T00:27:30.902Z,6.68
2023-05-16T00:29:57.314Z,7.53
2023-05-16T00:32:23.989Z,5.65
2023-05-16T00:34:50.466Z,7.53
2023-05-16T00:37:16.849Z,7.03
2023-05-16T00:39:43.277Z,8.00
2023-05-16T00:42:09.634Z,7.18
2023-05-16T00:44:36.042Z,5.25
2023-05-16T00:47:03.750Z,7.13
2023-05-16T00:49:30.152Z,5.05
2023-05-16T00:51:57.283Z,6.97
2023-05-16T00:54:25.996Z,12.40
2023-05-16T00:56:53.034Z,5.85
2023-05-16T00:59:19.803Z,7.63
2023-05-16T01:01:47.054Z,5.05
2023-05-16T01:04:13.809Z,5.30
2023-05-16T01:06:40.276Z,7.30
2023-05-16T01:09:07.919Z,5.80
2023-05-16T01:11:38.911Z,6.57
2023-05-16T01:14:23.805Z,5.10
2023-05-16T01:16:56.514Z,4.75
2023-05-16T01:19:43.159Z,5.55
2023-05-16T01:22:19.941Z,6.18
2023-05-16T01:24:49.115Z,4.40
2023-05-16T01:27:16.164Z,7.57
2023-05-16T01:29:42.588Z,7.25
2023-05-16T01:32:09.548Z,4.82
2023-05-16T01:34:36.008Z,7.45
2023-05-16T01:37:16.822Z,4.32
2023-05-16T01:39:50.416Z,2.72
2023-05-16T01:42:19.146Z,5.22
2023-05-16T01:44:54.607Z,4.38
2023-05-16T01:47:22.726Z,4.53
2023-05-16T01:49:58.432Z,3.08
2023-05-16T01:52:29.090Z,4.38
2023-05-16T01:54:56.777Z,3.53
2023-05-16T01:57:24.929Z,6.13
2023-05-16T01:59:51.443Z,6.60
2023-05-16T02:02:19.646Z,4.28
2023-05-16T02:04:46.477Z,4.63
2023-05-16T02:07:15.021Z,3.97
2023-05-16T02:09:41.636Z,4.03
2023-05-16T02:12:08.174Z,2.67
2023-05-16T02:14:34.699Z,4.22
2023-05-16T02:17:01.245Z,2.78
2023-05-16T02:19:27.787Z,5.75
2023-05-16T02:21:54.307Z,2.80
2023-05-16T02:24:21.285Z,4.15
2023-05-16T02:26:47.692Z,1.95
2023-05-16T02:29:15.171Z,2.33
2023-05-16T02:31:42.816Z,3.80
2023-05-16T02:34:09.446Z,3.95
2023-05-16T02:36:36.199Z,2.95
2023-05-16T02:39:04.188Z,2.72
2023-05-16T02:41:31.763Z,3.05
2023-05-16T02:43:58.222Z,2.40
2023-05-16T02:46:25.843Z,4.93
2023-05-16T02:48:52.764Z,2.22
2023-05-16T02:51:20.707Z,2.35
2023-05-16T02:53:47.230Z,1.73
2023-05-16T02:56:13.753Z,3.17
2023-05-16T02:58:40.166Z,4.22
2023-05-16T03:01:06.798Z,3.13
2023-05-16T03:03:35.427Z,1.90
2023-05-16T03:06:02.019Z,3.00
2023-05-16T03:08:28.455Z,3.47
2023-05-16T03:10:54.874Z,6.38
2023-05-16T03:13:21.791Z,2.83
2023-05-16T03:15:48.236Z,1.88
2023-05-16T03:18:14.725Z,4.15
2023-05-16T03:20:41.117Z,4.18
2023-05-16T03:23:08.344Z,5.15
2023-05-16T03:25:36.340Z,3.60
2023-05-16T03:28:03.316Z,5.75
2023-05-16T03:30:29.697Z,5.70
2023-05-16T03:32:56.227Z,5.85
2023-05-16T03:35:22.832Z,9.32
2023-05-16T03:37:49.236Z,3.72
2023-05-16T03:40:15.696Z,4.90
2023-05-16T03:42:42.080Z,5.35
2023-05-16T03:45:08.841Z,4.97
2023-05-16T03:47:35.464Z,4.72
2023-05-16T03:50:01.949Z,4.70
2023-05-16T03:52:28.372Z,2.47
2023-05-16T03:54:54.801Z,6.07
2023-05-16T03:57:21.223Z,4.45
2023-05-16T03:59:47.692Z,6.32
2023-05-16T04:02:14.109Z,4.53
2023-05-16T04:04:40.696Z,3.03
2023-05-16T04:07:07.288Z,5.18
2023-05-16T04:09:33.757Z,3.78
2023-05-16T04:12:02.048Z,4.32
2023-05-16T04:14:28.507Z,2.80
2023-05-16T04:16:55.266Z,4.03
2023-05-16T04:19:21.685Z,4.03
2023-05-16T04:21:48.263Z,6.93
2023-05-16T04:24:15.020Z,5.57
2023-05-16T04:26:41.426Z,5.25
2023-05-16T04:29:08.152Z,4.22
2023-05-16T04:31:34.659Z,6.15
2023-05-16T04:34:01.521Z,6.13
2023-05-16T04:36:30.134Z,4.63
2023-05-16T04:38:57.204Z,4.45
2023-05-16T04:41:24.036Z,5.35
2023-05-16T04:43:50.726Z,7.93
2023-05-16T04:46:17.342Z,5.82
2023-05-16T04:48:43.787Z,3.08
2023-05-16T04:51:10.343Z,5.65
2023-05-16T04:53:36.754Z,4.13
2023-05-16T04:56:03.443Z,3.90
2023-05-16T04:58:29.823Z,5.47
2023-05-16T05:00:56.482Z,5.88
2023-05-16T05:03:22.879Z,12.02
2023-05-16T05:05:49.380Z,6.00
2023-05-16T05:08:16.590Z,9.70
2023-05-16T05:10:42.976Z,8.88
2023-05-16T05:13:09.505Z,6.40
2023-05-16T05:15:35.965Z,4.57
2023-05-16T05:18:02.599Z,6.15
2023-05-16T05:20:29.244Z,6.25
2023-05-16T05:22:55.651Z,5.78
2023-05-16T05:25:22.112Z,5.70
2023-05-16T05:27:48.581Z,8.13
2023-05-16T05:30:14.997Z,8.13
2023-05-16T05:32:41.680Z,9.70
2023-05-16T05:35:08.225Z,6.35
2023-05-16T05:37:34.706Z,9.73
2023-05-16T05:40:01.327Z,7.15
2023-05-16T05:42:27.710Z,10.52
2023-05-16T05:44:54.153Z,4.75
2023-05-16T05:47:20.706Z,9.30
2023-05-16T05:49:47.258Z,8.65
2023-05-16T05:52:13.753Z,5.75
2023-05-16T05:54:40.163Z,10.38
2023-05-16T05:57:06.615Z,8.80
2023-05-16T05:59:33.754Z,8.38
2023-05-16T06:02:00.475Z,5.57
2023-05-16T06:04:26.912Z,14.18
2023-05-16T06:06:53.357Z,9.98
2023-05-16T06:09:21.438Z,11.00
2023-05-16T06:11:47.839Z,10.50
2023-05-16T06:14:14.797Z,9.55
2023-05-16T06:16:41.386Z,8.35
2023-05-16T06:19:08.113Z,11.88
2023-05-16T06:21:34.855Z,8.82
2023-05-16T06:24:01.365Z,8.98
2023-05-16T06:26:28.023Z,10.18
2023-05-16T06:28:54.492Z,11.27
2023-05-16T06:31:20.936Z,14.75
2023-05-16T06:33:47.612Z,10.27
2023-05-16T06:36:13.972Z,6.88
2023-05-16T06:38:40.481Z,13.70
2023-05-16T06:41:06.931Z,11.45
2023-05-16T06:43:33.375Z,11.30
2023-05-16T06:45:59.875Z,10.07
2023-05-16T06:48:26.378Z,16.17
2023-05-16T06:50:52.912Z,10.70
2023-05-16T06:53:19.684Z,13.35
2023-05-16T06:55:46.918Z,12.50
2023-05-16T06:58:13.412Z,12.73
2023-05-16T07:00:39.963Z,19.48
2023-05-16T07:03:06.811Z,22.02
2023-05-16T07:05:33.567Z,20.05
2023-05-16T07:07:59.986Z,11.35
2023-05-16T07:10:27.372Z,11.38
2023-05-16T07:12:53.868Z,18.42
2023-05-16T07:15:20.326Z,14.75
2023-05-16T07:17:47.019Z,11.88
2023-05-16T07:20:14.862Z,13.05
2023-05-16T07:22:41.390Z,10.65
2023-05-16T07:25:12.619Z,13.43
2023-05-16T07:27:41.487Z,16.00
2023-05-16T07:30:09.711Z,11.65
2023-05-16T07:32:36.178Z,13.00
2023-05-16T07:35:02.660Z,15.05
2023-05-16T07:37:31.044Z,10.93
2023-05-16T07:39:57.728Z,11.32
2023-05-16T07:42:25.193Z,13.40
2023-05-16T07:44:51.633Z,14.85
2023-05-16T07:47:18.112Z,15.68
2023-05-16T07:49:44.684Z,11.52
2023-05-16T07:52:11.225Z,11.52
2023-05-16T07:54:37.760Z,13.07
2023-05-16T07:57:04.269Z,14.50
2023-05-16T07:59:30.926Z,17.33
2023-05-16T08:01:57.559Z,17.80
2023-05-16T08:04:24.056Z,23.98
2023-05-16T08:06:50.482Z,13.23
2023-05-16T08:09:16.916Z,14.73
2023-05-16T08:11:45.510Z,9.65
2023-05-16T08:14:12.078Z,9.57
2023-05-16T08:16:38.680Z,7.00
2023-05-16T08:19:05.210Z,13.30
2023-05-16T08:21:31.989Z,10.38
2023-05-16T08:23:58.594Z,11.35
2023-05-16T08:26:25.102Z,19.77
2023-05-16T08:28:51.586Z,20.75
2023-05-16T08:31:18.058Z,25.23
2023-05-16T08:33:44.503Z,9.35
2023-05-16T08:36:11.011Z,25.33
2023-05-16T08:38:37.443Z,20.42
2023-05-16T08:41:04.024Z,17.35
2023-05-16T08:43:30.608Z,30.00
2023-05-16T08:45:57.148Z,37.55
2023-05-16T08:48:24.090Z,16.35
2023-05-16T08:50:51.772Z,17.15
2023-05-16T08:53:21.875Z,19.80
2023-05-16T08:55:49.469Z,9.55
2023-05-16T08:58:16.406Z,13.02
2023-05-16T09:00:43.353Z,15.93
2023-05-16T09:03:09.961Z,17.88
2023-05-16T09:05:36.459Z,12.65
2023-05-16T09:08:02.959Z,5.97
2023-05-16T09:10:29.599Z,20.42
2023-05-16T09:12:56.179Z,15.30
2023-05-16T09:15:22.700Z,20.65
2023-05-16T09:17:49.442Z,9.82
2023-05-16T09:20:16.340Z,14.45
2023-05-16T09:22:53.389Z,14.07
2023-05-16T09:25:29.254Z,12.75
2023-05-16T09:27:56.928Z,15.77
2023-05-16T09:30:30.559Z,21.15
2023-05-16T09:32:57.181Z,9.88
2023-05-16T09:35:42.560Z,11.15
2023-05-16T09:38:14.003Z,14.27
2023-05-16T09:40:41.514Z,32.55
2023-05-16T09:43:08.521Z,12.30
2023-05-16T09:45:35.631Z,12.90
2023-05-16T09:48:05.865Z,9.80
2023-05-16T09:50:36.782Z,11.32
2023-05-16T09:53:03.847Z,12.18
2023-05-16T09:55:30.773Z,8.02
2023-05-16T09:57:57.369Z,18.35
2023-05-16T10:00:30.000Z,16.52
2023-05-16T10:02:57.697Z,8.25
2023-05-16T10:05:26.992Z,12.10
2023-05-16T10:07:57.376Z,10.43
2023-05-16T10:10:24.472Z,11.73
2023-05-16T10:12:51.283Z,14.20
2023-05-16T10:15:18.188Z,13.35
2023-05-16T10:17:49.099Z,4.85
2023-05-16T10:20:16.189Z,6.82
2023-05-16T10:22:46.874Z,10.52
2023-05-16T10:25:26.008Z,13.07
2023-05-16T10:27:52.993Z,18.92
2023-05-16T10:30:19.574Z,7.07
2023-05-16T10:32:46.665Z,12.32
2023-05-16T10:35:13.146Z,23.10
2023-05-16T10:37:40.152Z,8.60
2023-05-16T10:40:07.888Z,7.57
2023-05-16T10:42:34.557Z,9.50
2023-05-16T10:45:19.614Z,11.23
2023-05-16T10:47:56.440Z,14.05
2023-05-16T10:50:35.761Z,9.10
2023-05-16T10:53:29.188Z,11.27
2023-05-16T10:56:01.674Z,11.57
2023-05-16T10:58:40.043Z,7.43
2023-05-16T11:01:18.947Z,12.30
2023-05-16T11:04:08.940Z,9.02
2023-05-16T11:06:35.384Z,18.50
2023-05-16T11:09:11.074Z,18.30
2023-05-16T11:11:53.032Z,17.77
2023-05-16T11:16:48.947Z,11.68
2023-05-16T11:19:28.313Z,19.25
2023-05-16T11:22:11.811Z,9.65
2023-05-16T11:24:39.433Z,11.55
2023-05-16T11:27:06.479Z,15.23
2023-05-16T11:29:36.068Z,11.55
2023-05-16T11:32:04.018Z,7.47
2023-05-16T11:34:31.161Z,7.22
2023-05-16T11:36:57.812Z,10.35
2023-05-16T11:39:27.798Z,8.30
2023-05-16T11:41:54.369Z,12.52
2023-05-16T11:44:21.029Z,10.30
2023-05-16T11:46:47.800Z,7.53
2023-05-16T11:49:14.446Z,6.15
2023-05-16T11:51:41.365Z,4.68
2023-05-16T11:54:09.525Z,5.57
2023-05-16T11:56:36.872Z,7.25
2023-05-16T11:59:03.599Z,16.95
2023-05-16T12:01:40.248Z,7.97
2023-05-16T12:04:10.892Z,7.47
2023-05-16T12:06:37.687Z,5.85
2023-05-16T12:09:11.023Z,16.77
2023-05-16T12:11:38.441Z,14.38
2023-05-16T12:14:09.671Z,6.47
2023-05-16T12:16:37.470Z,8.03
2023-05-16T12:19:05.203Z,4.93
2023-05-16T12:21:32.340Z,13.45
2023-05-16T12:23:59.006Z,12.07
2023-05-16T12:26:30.919Z,10.55
2023-05-16T12:31:32.345Z,25.17
2023-05-16T12:33:59.600Z,25.15
2023-05-16T12:36:29.069Z,10.23
2023-05-16T12:38:55.690Z,13.55
2023-05-16T12:41:25.340Z,12.85
2023-05-16T12:43:51.936Z,16.85
2023-05-16T12:46:19.855Z,8.95
2023-05-16T12:48:48.056Z,8.60
2023-05-16T12:51:17.935Z,10.80
2023-05-16T12:53:51.727Z,17.52
2023-05-16T12:56:28.268Z,9.80
2023-05-16T12:58:54.737Z,6.57
2023-05-16T13:01:21.231Z,12.75
2023-05-16T13:03:47.785Z,16.83
2023-05-16T13:06:14.335Z,17.98
2023-05-16T13:08:41.359Z,20.35
2023-05-16T13:11:07.843Z,12.35
2023-05-16T13:13:36.243Z,11.48
2023-05-16T13:16:04.322Z,13.73
2023-05-16T13:18:31.605Z,11.50
2023-05-16T13:20:58.390Z,13.10
2023-05-16T13:23:24.797Z,11.98
2023-05-16T13:25:53.037Z,8.25
2023-05-16T13:28:19.597Z,10.68
2023-05-16T13:30:46.006Z,9.77
2023-05-16T13:33:12.594Z,14.60
2023-05-16T13:35:39.174Z,18.05
2023-05-16T13:38:08.705Z,20.40
2023-05-16T13:40:36.624Z,17.88
2023-05-16T13:43:03.539Z,28.05
2023-05-16T13:45:31.388Z,7.20
2023-05-16T13:47:57.928Z,6.50
2023-05-16T13:50:24.415Z,8.80
2023-05-16T13:52:50.881Z,10.27
2023-05-16T13:55:18.679Z,18.58
2023-05-16T13:57:45.089Z,24.95
2023-05-16T14:02:43.773Z,13.10
2023-05-16T14:05:10.645Z,13.82
2023-05-16T14:07:37.081Z,11.77
2023-05-16T14:10:04.187Z,8.95
2023-05-16T14:12:31.183Z,8.93
2023-05-16T14:14:57.650Z,7.22
2023-05-16T14:17:24.064Z,8.25
2023-05-16T14:19:50.519Z,7.57
2023-05-16T14:22:18.896Z,9.25
2023-05-16T14:24:45.340Z,8.05
2023-05-16T14:27:12.234Z,15.90
2023-05-16T14:29:38.730Z,13.07
2023-05-16T14:32:05.409Z,5.05
2023-05-16T14:34:32.770Z,7.20
2023-05-16T14:36:59.280Z,13.13
2023-05-16T14:39:27.116Z,7.60
2023-05-16T14:41:53.546Z,9.02
2023-05-16T14:44:21.731Z,6.43
2023-05-16T14:46:48.448Z,7.70
2023-05-16T14:49:15.132Z,7.22
2023-05-16T14:51:41.580Z,11.25
2023-05-16T14:54:08.521Z,5.68
2023-05-16T14:56:34.980Z,6.93
2023-05-16T14:59:01.724Z,11.98
2023-05-16T15:01:28.239Z,5.55
2023-05-16T15:03:56.322Z,5.38
2023-05-16T15:06:23.704Z,9.40
2023-05-16T15:08:50.835Z,6.50
2023-05-16T15:11:17.487Z,5.72
2023-05-16T15:13:43.966Z,7.93
2023-05-16T15:16:10.622Z,8.68
2023-05-16T15:18:37.136Z,8.18
2023-05-16T15:21:03.741Z,7.32
2023-05-16T15:23:30.208Z,8.55
2023-05-16T15:25:56.761Z,4.15
2023-05-16T15:28:23.231Z,7.47
2023-05-16T15:30:50.952Z,8.18
2023-05-16T15:33:17.373Z,8.48
2023-05-16T15:35:44.109Z,10.93
2023-05-16T15:38:10.724Z,4.97
2023-05-16T15:40:37.208Z,12.98
2023-05-16T15:43:03.961Z,6.50
2023-05-16T15:45:31.007Z,6.65
2023-05-16T15:47:57.613Z,7.85
2023-05-16T15:50:24.258Z,11.57
2023-05-16T15:52:51.014Z,8.90
2023-05-16T15:55:17.520Z,7.53
2023-05-16T15:57:44.149Z,17.27
2023-05-16T16:00:11.204Z,7.72
2023-05-16T16:02:37.749Z,9.68
2023-05-16T16:05:04.326Z,6.25
2023-05-16T16:07:30.812Z,9.38
2023-05-16T16:09:59.592Z,5.32
2023-05-16T16:12:26.128Z,7.43
2023-05-16T16:14:52.690Z,9.30
2023-05-16T16:17:19.208Z,6.82
2023-05-16T16:19:45.709Z,5.75
2023-05-16T16:22:12.121Z,6.43
2023-05-16T16:24:38.564Z,3.70
2023-05-16T16:27:05.104Z,7.53
2023-05-16T16:29:31.598Z,7.55
2023-05-16T16:31:58.799Z,6.93
2023-05-16T16:34:25.332Z,4.93
2023-05-16T16:36:51.822Z,4.57
2023-05-16T16:39:18.265Z,7.50
2023-05-16T16:41:44.817Z,2.30
2023-05-16T16:44:11.923Z,4.97
2023-05-16T16:46:38.650Z,7.65
2023-05-16T16:49:05.515Z,5.72
2023-05-16T16:51:33.283Z,4.65
2023-05-16T16:53:59.865Z,5.55
2023-05-16T16:56:28.091Z,4.95
2023-05-16T16:58:54.599Z,6.82
2023-05-16T17:01:21.741Z,6.07
2023-05-16T17:03:48.220Z,7.00
2023-05-16T17:06:14.701Z,12.38
2023-05-16T17:08:41.150Z,7.10
2023-05-16T17:11:07.852Z,4.93
2023-05-16T17:13:37.487Z,5.25
2023-05-16T17:16:04.341Z,9.15
2023-05-16T17:18:33.818Z,6.47
2023-05-16T17:21:01.177Z,5.55
2023-05-16T17:23:27.651Z,3.85
2023-05-16T17:25:54.121Z,8.52
2023-05-16T17:28:20.586Z,5.40
2023-05-16T17:30:47.095Z,8.57
2023-05-16T17:33:14.233Z,4.88
2023-05-16T17:35:41.114Z,6.50
2023-05-16T17:38:07.578Z,7.50
2023-05-16T17:40:34.048Z,6.07
2023-05-16T17:43:00.501Z,8.25
2023-05-16T17:45:27.410Z,5.72
2023-05-16T17:47:54.201Z,6.70
2023-05-16T17:50:21.886Z,8.82
2023-05-16T17:52:48.449Z,8.10
2023-05-16T17:55:14.958Z,8.32
2023-05-16T17:57:44.254Z,6.40
2023-05-16T18:00:11.452Z,8.15
2023-05-16T18:02:38.719Z,8.98
2023-05-16T18:05:05.616Z,5.32
2023-05-16T18:07:32.284Z,9.73
2023-05-16T18:09:59.046Z,5.57
2023-05-16T18:12:25.596Z,8.55
2023-05-16T18:14:52.188Z,8.57
2023-05-16T18:17:18.682Z,9.88
2023-05-16T18:19:45.290Z,7.32
2023-05-16T18:22:13.215Z,6.32
2023-05-16T18:24:40.103Z,5.78
2023-05-16T18:27:06.589Z,9.10
2023-05-16T18:29:33.042Z,8.52
2023-05-16T18:32:00.093Z,7.15
2023-05-16T18:34:26.620Z,6.28
2023-05-16T18:36:53.048Z,5.93
2023-05-16T18:39:20.470Z,9.48
2023-05-16T18:41:48.378Z,5.10
2023-05-16T18:44:17.360Z,5.15
2023-05-16T18:46:47.113Z,5.70
2023-05-16T18:49:13.904Z,5.75
2023-05-16T18:51:40.561Z,11.75
2023-05-16T18:54:07.295Z,12.57
2023-05-16T18:56:33.896Z,9.18
2023-05-16T18:59:00.606Z,6.32
2023-05-16T19:01:27.133Z,6.88
2023-05-16T19:03:53.819Z,7.75
2023-05-16T19:06:20.397Z,7.13
2023-05-16T19:08:48.338Z,5.13
2023-05-16T19:11:15.970Z,9.10
2023-05-16T19:13:44.761Z,5.30
2023-05-16T19:16:11.244Z,9.82
2023-05-16T19:18:38.234Z,7.93
2023-05-16T19:21:05.122Z,6.43
2023-05-16T19:23:31.857Z,7.15
2023-05-16T19:25:58.347Z,6.53
2023-05-16T19:28:24.840Z,10.38
2023-05-16T19:30:51.390Z,7.18
2023-05-16T19:33:17.932Z,9.98
2023-05-16T19:35:44.362Z,8.93
2023-05-16T19:38:10.879Z,8.60
2023-05-16T19:40:37.347Z,7.82
2023-05-16T19:43:03.829Z,5.75
2023-05-16T19:45:30.666Z,7.32
2023-05-16T19:47:57.393Z,8.52
2023-05-16T19:50:23.923Z,9.32
2023-05-16T19:52:50.501Z,10.73
2023-05-16T19:55:16.937Z,10.57
2023-05-16T19:57:43.426Z,8.82
2023-05-16T20:00:10.506Z,9.88
2023-05-16T20:02:40.007Z,7.80
2023-05-16T20:05:06.911Z,9.57
2023-05-16T20:07:33.435Z,7.90
2023-05-16T20:09:59.888Z,11.07
2023-05-16T20:12:26.352Z,9.68
2023-05-16T20:14:52.917Z,11.38
2023-05-16T20:17:21.077Z,9.40
2023-05-16T20:19:47.573Z,12.40
2023-05-16T20:22:14.073Z,9.35
2023-05-16T20:24:40.604Z,11.63
2023-05-16T20:27:07.085Z,11.02
2023-05-16T20:29:34.027Z,13.77
2023-05-16T20:32:00.928Z,15.38
2023-05-16T20:34:28.011Z,14.48
2023-05-16T20:36:54.500Z,11.45
2023-05-16T20:39:21.040Z,10.00
2023-05-16T20:41:47.635Z,8.93
2023-05-16T20:44:15.326Z,5.30
2023-05-16T20:46:43.236Z,11.13
2023-05-16T20:49:09.885Z,12.90
2023-05-16T20:51:36.390Z,6.47
2023-05-16T20:54:02.866Z,6.70
2023-05-16T20:56:29.368Z,7.72
2023-05-16T20:58:55.800Z,9.52
2023-05-16T21:01:22.380Z,7.80
2023-05-16T21:03:48.882Z,13.45
2023-05-16T21:06:15.432Z,7.70
2023-05-16T21:08:41.846Z,10.70
2023-05-16T21:11:08.318Z,10.38
2023-05-16T21:13:34.730Z,10.63
2023-05-16T21:16:01.165Z,7.15
2023-05-16T21:18:27.708Z,6.22
2023-05-16T21:20:54.180Z,7.28
2023-05-16T21:23:20.881Z,5.93
2023-05-16T21:25:47.308Z,8.77
2023-05-16T21:28:13.698Z,7.80
2023-05-16T21:30:40.285Z,5.40
2023-05-16T21:33:06.855Z,8.73
2023-05-16T21:35:33.696Z,10.43
2023-05-16T21:38:00.257Z,10.25
2023-05-16T21:40:28.759Z,10.55
2023-05-16T21:42:55.188Z,11.07
2023-05-16T21:45:21.731Z,11.32
2023-05-16T21:47:48.248Z,13.82
2023-05-16T21:50:14.970Z,14.70
2023-05-16T21:52:42.029Z,11.98
2023-05-16T21:55:08.832Z,11.15
2023-05-16T21:57:35.477Z,9.45
2023-05-16T22:00:06.630Z,10.02
2023-05-16T22:02:33.481Z,9.00
2023-05-16T22:05:00.077Z,9.48
2023-05-16T22:07:29.299Z,11.80
2023-05-16T22:09:56.298Z,7.65
2023-05-16T22:12:23.948Z,7.30
2023-05-16T22:14:50.862Z,8.02
2023-05-16T22:17:19.257Z,12.45
2023-05-16T22:19:46.377Z,6.10
2023-05-16T22:22:13.139Z,9.40
2023-05-16T22:24:39.686Z,8.52
2023-05-16T22:27:06.258Z,8.80
2023-05-16T22:29:37.982Z,13.15
2023-05-16T22:32:08.371Z,8.82
2023-05-16T22:34:40.819Z,6.53
2023-05-16T22:37:10.135Z,5.88
2023-05-16T22:39:36.893Z,8.98
2023-05-16T22:42:03.741Z,7.80
2023-05-16T22:44:30.318Z,10.02
2023-05-16T22:46:56.754Z,6.35
2023-05-16T22:49:23.278Z,7.80
2023-05-16T22:51:50.038Z,7.82
2023-05-16T22:54:16.699Z,9.05
2023-05-16T22:56:43.235Z,7.03
2023-05-16T22:59:09.652Z,9.48
2023-05-16T23:01:36.202Z,7.25
2023-05-16T23:04:02.744Z,6.88
2023-05-16T23:06:29.289Z,7.47
2023-05-16T23:08:55.719Z,5.85
2023-05-16T23:11:22.576Z,8.60
2023-05-16T23:13:49.081Z,10.38
2023-05-16T23:16:15.671Z,9.10
2023-05-16T23:18:42.193Z,11.07
2023-05-16T23:21:08.714Z,9.63
2023-05-16T23:23:35.309Z,8.35
2023-05-16T23:26:01.753Z,9.55
2023-05-16T23:28:28.168Z,10.90
2023-05-16T23:30:54.646Z,8.93
2023-05-16T23:33:21.097Z,11.55
2023-05-16T23:35:47.579Z,7.97
2023-05-16T23:38:13.984Z,8.32
2023-05-16T23:40:40.483Z,9.05
2023-05-16T23:43:06.938Z,4.93
2023-05-16T23:45:33.399Z,11.27
2023-05-16T23:47:59.934Z,8.90
2023-05-16T23:50:26.417Z,7.07
2023-05-16T23:52:52.865Z,7.32
2023-05-16T23:55:20.398Z,8.10
2023-05-16T23:57:46.884Z,4.53
